sensor_id;sensor_type;location;lat;lon;timestamp;P1;durP1;ratioP1;P2;durP2;ratioP2
68608;SDS011;55581;46.718;7.690;2022-09-01T00:02:13;4.67;;;2.63;;
68608;SDS011;55581;46.718;7.690;2022-09-01T00:04:41;4.70;;;2.63;;
68608;SDS011;55581;46.718;7.690;2022-09-01T00:07:08;8.25;;;3.17;;
68608;SDS011;55581;46.718;7.690;2022-09-01T00:09:36;5.78;;;2.78;;
68608;SDS011;55581;46.718;7.690;2022-09-01T00:12:02;5.20;;;2.72;;
68608;SDS011;55581;46.718;7.690;2022-09-01T00:14:31;5.43;;;2.77;;
68608;SDS011;55581;46.718;7.690;2022-09-01T00:17:00;7.35;;;3.33;;
68608;SDS011;55581;46.718;7.690;2022-09-01T00:19:29;5.72;;;2.42;;
68608;SDS011;55581;46.718;7.690;2022-09-01T00:21:55;5.43;;;2.25;;
68608;SDS011;55581;46.718;7.690;2022-09-01T00:24:21;5.78;;;2.95;;
68608;SDS011;55581;46.718;7.690;2022-09-01T00:26:49;5.03;;;2.50;;
68608;SDS011;55581;46.718;7.690;2022-09-01T00:29:15;6.45;;;2.45;;
68608;SDS011;55581;46.718;7.690;2022-09-01T00:31:43;5.00;;;2.78;;
68608;SDS011;55581;46.718;7.690;2022-09-01T00:34:09;5.77;;;2.53;;
68608;SDS011;55581;46.718;7.690;2022-09-01T00:36:35;5.35;;;2.40;;
68608;SDS011;55581;46.718;7.690;2022-09-01T00:39:03;5.93;;;2.83;;
68608;SDS011;55581;46.718;7.690;2022-09-01T00:41:30;5.80;;;2.67;;
68608;SDS011;55581;46.718;7.690;2022-09-01T00:43:59;5.70;;;2.65;;
68608;SDS011;55581;46.718;7.690;2022-09-01T00:46:34;4.53;;;2.60;;
68608;SDS011;55581;46.718;7.690;2022-09-01T00:49:03;5.78;;;2.83;;
68608;SDS011;55581;46.718;7.690;2022-09-01T00:51:39;6.18;;;3.00;;
68608;SDS011;55581;46.718;7.690;2022-09-01T00:54:07;4.93;;;2.77;;
68608;SDS011;55581;46.718;7.690;2022-09-01T00:56:38;5.53;;;2.90;;
68608;SDS011;55581;46.718;7.690;2022-09-01T00:59:08;7.22;;;2.97;;
68608;SDS011;55581;46.718;7.690;2022-09-01T01:01:35;4.55;;;2.42;;
68608;SDS011;55581;46.718;7.690;2022-09-01T01:04:05;5.40;;;2.50;;
68608;SDS011;55581;46.718;7.690;2022-09-01T01:07:00;10.07;;;2.80;;
68608;SDS011;55581;46.718;7.690;2022-09-01T01:09:35;6.05;;;3.03;;
68608;SDS011;55581;46.718;7.690;2022-09-01T01:12:07;4.00;;;2.35;;
68608;SDS011;55581;46.718;7.690;2022-09-01T01:14:37;5.03;;;3.03;;
68608;SDS011;55581;46.718;7.690;2022-09-01T01:17:04;5.43;;;2.47;;
68608;SDS011;55581;46.718;7.690;2022-09-01T01:19:34;5.13;;;2.90;;
68608;SDS011;55581;46.718;7.690;2022-09-01T01:33:52;4.90;;;2.70;;
68608;SDS011;55581;46.718;7.690;2022-09-01T01:38:49;6.32;;;2.75;;
68608;SDS011;55581;46.718;7.690;2022-09-01T01:41:17;5.00;;;2.40;;
68608;SDS011;55581;46.718;7.690;2022-09-01T01:43:48;7.55;;;2.97;;
68608;SDS011;55581;46.718;7.690;2022-09-01T01:46:15;6.30;;;2.60;;
68608;SDS011;55581;46.718;7.690;2022-09-01T01:48:42;5.55;;;2.35;;
68608;SDS011;55581;46.718;7.690;2022-09-01T01:51:10;4.72;;;2.60;;
68608;SDS011;55581;46.718;7.690;2022-09-01T01:53:36;5.43;;;2.40;;
68608;SDS011;55581;46.718;7.690;2022-09-01T01:56:02;5.03;;;2.50;;
68608;SDS011;55581;46.718;7.690;2022-09-01T01:58:28;5.13;;;2.40;;
68608;SDS011;55581;46.718;7.690;2022-09-01T02:00:55;6.75;;;2.65;;
68608;SDS011;55581;46.718;7.690;2022-09-01T02:03:24;4.45;;;2.67;;
68608;SDS011;55581;46.718;7.690;2022-09-01T02:05:53;5.47;;;2.40;;
68608;SDS011;55581;46.718;7.690;2022-09-01T02:08:19;5.63;;;2.30;;
68608;SDS011;55581;46.718;7.690;2022-09-01T02:10:51;6.10;;;2.50;;
68608;SDS011;55581;46.718;7.690;2022-09-01T02:13:19;4.85;;;2.85;;
68608;SDS011;55581;46.718;7.690;2022-09-01T02:15:50;5.60;;;2.90;;
68608;SDS011;55581;46.718;7.690;2022-09-01T02:18:20;5.22;;;2.75;;
68608;SDS011;55581;46.718;7.690;2022-09-01T02:20:52;5.28;;;2.30;;
68608;SDS011;55581;46.718;7.690;2022-09-01T02:23:18;6.43;;;2.70;;
68608;SDS011;55581;46.718;7.690;2022-09-01T02:25:48;6.15;;;2.50;;
68608;SDS011;55581;46.718;7.690;2022-09-01T02:28:17;6.22;;;3.08;;
68608;SDS011;55581;46.718;7.690;2022-09-01T02:30:44;5.28;;;2.90;;
68608;SDS011;55581;46.718;7.690;2022-09-01T02:33:11;5.55;;;3.00;;
68608;SDS011;55581;46.718;7.690;2022-09-01T02:35:46;8.37;;;2.57;;
68608;SDS011;55581;46.718;7.690;2022-09-01T02:38:16;4.78;;;2.97;;
68608;SDS011;55581;46.718;7.690;2022-09-01T02:40:42;5.22;;;2.80;;
68608;SDS011;55581;46.718;7.690;2022-09-01T02:43:11;6.63;;;3.15;;
68608;SDS011;55581;46.718;7.690;2022-09-01T02:45:38;5.07;;;2.88;;
68608;SDS011;55581;46.718;7.690;2022-09-01T02:48:08;6.63;;;2.90;;
68608;SDS011;55581;46.718;7.690;2022-09-01T02:50:38;5.50;;;3.20;;
68608;SDS011;55581;46.718;7.690;2022-09-01T02:53:05;5.47;;;3.30;;
68608;SDS011;55581;46.718;7.690;2022-09-01T02:55:34;5.97;;;3.47;;
68608;SDS011;55581;46.718;7.690;2022-09-01T02:58:00;6.88;;;4.10;;
68608;SDS011;55581;46.718;7.690;2022-09-01T03:00:26;5.47;;;3.17;;
68608;SDS011;55581;46.718;7.690;2022-09-01T03:02:58;6.38;;;3.40;;
68608;SDS011;55581;46.718;7.690;2022-09-01T03:05:26;6.85;;;3.30;;
68608;SDS011;55581;46.718;7.690;2022-09-01T03:07:54;6.15;;;3.88;;
68608;SDS011;55581;46.718;7.690;2022-09-01T03:10:27;6.77;;;3.97;;
68608;SDS011;55581;46.718;7.690;2022-09-01T03:13:00;5.65;;;2.83;;
68608;SDS011;55581;46.718;7.690;2022-09-01T03:15:27;5.63;;;3.50;;
68608;SDS011;55581;46.718;7.690;2022-09-01T03:17:54;5.43;;;3.33;;
68608;SDS011;55581;46.718;7.690;2022-09-01T03:20:20;5.78;;;3.28;;
68608;SDS011;55581;46.718;7.690;2022-09-01T03:22:46;5.60;;;3.40;;
68608;SDS011;55581;46.718;7.690;2022-09-01T03:25:13;5.65;;;3.13;;
68608;SDS011;55581;46.718;7.690;2022-09-01T03:27:42;9.00;;;3.80;;
68608;SDS011;55581;46.718;7.690;2022-09-01T03:30:09;4.83;;;3.00;;
68608;SDS011;55581;46.718;7.690;2022-09-01T03:32:35;7.30;;;3.40;;
68608;SDS011;55581;46.718;7.690;2022-09-01T03:35:00;6.03;;;3.53;;
68608;SDS011;55581;46.718;7.690;2022-09-01T03:37:28;5.82;;;3.20;;
68608;SDS011;55581;46.718;7.690;2022-09-01T03:39:54;5.90;;;2.97;;
68608;SDS011;55581;46.718;7.690;2022-09-01T03:42:19;6.37;;;3.53;;
68608;SDS011;55581;46.718;7.690;2022-09-01T03:44:46;5.85;;;3.30;;
68608;SDS011;55581;46.718;7.690;2022-09-01T03:47:15;6.53;;;3.35;;
68608;SDS011;55581;46.718;7.690;2022-09-01T03:49:42;6.17;;;3.50;;
68608;SDS011;55581;46.718;7.690;2022-09-01T03:52:10;6.60;;;3.17;;
68608;SDS011;55581;46.718;7.690;2022-09-01T03:54:39;7.50;;;3.25;;
68608;SDS011;55581;46.718;7.690;2022-09-01T03:57:05;6.57;;;3.37;;
68608;SDS011;55581;46.718;7.690;2022-09-01T03:59:34;6.03;;;2.97;;
68608;SDS011;55581;46.718;7.690;2022-09-01T04:02:00;5.70;;;3.10;;
68608;SDS011;55581;46.718;7.690;2022-09-01T04:04:27;6.90;;;3.00;;
68608;SDS011;55581;46.718;7.690;2022-09-01T04:06:57;8.20;;;3.30;;
68608;SDS011;55581;46.718;7.690;2022-09-01T04:09:24;6.10;;;3.40;;
68608;SDS011;55581;46.718;7.690;2022-09-01T04:11:50;5.93;;;3.33;;
68608;SDS011;55581;46.718;7.690;2022-09-01T04:14:17;7.50;;;3.13;;
68608;SDS011;55581;46.718;7.690;2022-09-01T04:16:45;6.30;;;3.37;;
68608;SDS011;55581;46.718;7.690;2022-09-01T04:19:32;5.78;;;3.13;;
68608;SDS011;55581;46.718;7.690;2022-09-01T04:22:03;5.82;;;3.03;;
68608;SDS011;55581;46.718;7.690;2022-09-01T04:24:30;6.80;;;3.22;;
68608;SDS011;55581;46.718;7.690;2022-09-01T04:26:57;5.17;;;2.77;;
68608;SDS011;55581;46.718;7.690;2022-09-01T04:29:26;6.30;;;2.92;;
68608;SDS011;55581;46.718;7.690;2022-09-01T04:31:53;5.30;;;3.20;;
68608;SDS011;55581;46.718;7.690;2022-09-01T04:34:20;4.93;;;2.92;;
68608;SDS011;55581;46.718;7.690;2022-09-01T04:36:46;5.45;;;3.03;;
68608;SDS011;55581;46.718;7.690;2022-09-01T04:39:12;6.40;;;2.70;;
68608;SDS011;55581;46.718;7.690;2022-09-01T04:41:41;5.97;;;3.00;;
68608;SDS011;55581;46.718;7.690;2022-09-01T04:44:10;7.47;;;4.10;;
68608;SDS011;55581;46.718;7.690;2022-09-01T04:46:37;7.10;;;3.97;;
68608;SDS011;55581;46.718;7.690;2022-09-01T04:49:10;6.85;;;4.28;;
68608;SDS011;55581;46.718;7.690;2022-09-01T04:51:41;6.35;;;3.88;;
68608;SDS011;55581;46.718;7.690;2022-09-01T04:54:08;6.10;;;3.83;;
68608;SDS011;55581;46.718;7.690;2022-09-01T04:56:38;7.50;;;3.73;;
68608;SDS011;55581;46.718;7.690;2022-09-01T04:59:05;6.22;;;3.70;;
68608;SDS011;55581;46.718;7.690;2022-09-01T05:01:32;7.43;;;4.32;;
68608;SDS011;55581;46.718;7.690;2022-09-01T05:04:11;6.40;;;4.35;;
68608;SDS011;55581;46.718;7.690;2022-09-01T05:06:41;7.43;;;4.68;;
68608;SDS011;55581;46.718;7.690;2022-09-01T05:09:09;7.83;;;4.27;;
68608;SDS011;55581;46.718;7.690;2022-09-01T05:11:38;6.90;;;4.60;;
68608;SDS011;55581;46.718;7.690;2022-09-01T05:14:05;6.30;;;4.00;;
68608;SDS011;55581;46.718;7.690;2022-09-01T05:16:34;6.43;;;3.87;;
68608;SDS011;55581;46.718;7.690;2022-09-01T05:19:02;6.73;;;4.40;;
68608;SDS011;55581;46.718;7.690;2022-09-01T05:21:28;6.18;;;3.83;;
68608;SDS011;55581;46.718;7.690;2022-09-01T05:23:54;6.43;;;4.10;;
68608;SDS011;55581;46.718;7.690;2022-09-01T05:26:24;7.70;;;3.93;;
68608;SDS011;55581;46.718;7.690;2022-09-01T05:28:56;6.22;;;4.03;;
68608;SDS011;55581;46.718;7.690;2022-09-01T05:31:24;7.20;;;4.75;;
68608;SDS011;55581;46.718;7.690;2022-09-01T05:33:52;8.05;;;3.88;;
68608;SDS011;55581;46.718;7.690;2022-09-01T05:36:20;7.05;;;4.10;;
68608;SDS011;55581;46.718;7.690;2022-09-01T05:38:47;6.03;;;3.70;;
68608;SDS011;55581;46.718;7.690;2022-09-01T05:41:16;7.55;;;4.80;;
68608;SDS011;55581;46.718;7.690;2022-09-01T05:43:46;8.15;;;4.60;;
68608;SDS011;55581;46.718;7.690;2022-09-01T05:46:17;6.75;;;4.32;;
68608;SDS011;55581;46.718;7.690;2022-09-01T05:48:45;7.07;;;4.53;;
68608;SDS011;55581;46.718;7.690;2022-09-01T05:51:13;6.93;;;4.13;;
68608;SDS011;55581;46.718;7.690;2022-09-01T05:53:42;8.15;;;4.63;;
68608;SDS011;55581;46.718;7.690;2022-09-01T05:56:08;7.05;;;4.30;;
68608;SDS011;55581;46.718;7.690;2022-09-01T05:58:37;8.70;;;4.60;;
68608;SDS011;55581;46.718;7.690;2022-09-01T06:01:04;6.23;;;4.17;;
68608;SDS011;55581;46.718;7.690;2022-09-01T06:03:31;6.57;;;3.78;;
68608;SDS011;55581;46.718;7.690;2022-09-01T06:06:03;7.10;;;4.70;;
68608;SDS011;55581;46.718;7.690;2022-09-01T06:08:36;7.15;;;4.43;;
68608;SDS011;55581;46.718;7.690;2022-09-01T06:11:02;7.95;;;4.75;;
68608;SDS011;55581;46.718;7.690;2022-09-01T06:13:36;6.50;;;4.47;;
68608;SDS011;55581;46.718;7.690;2022-09-01T06:16:04;7.88;;;4.90;;
68608;SDS011;55581;46.718;7.690;2022-09-01T06:18:29;8.63;;;4.85;;
68608;SDS011;55581;46.718;7.690;2022-09-01T06:21:01;7.47;;;4.93;;
68608;SDS011;55581;46.718;7.690;2022-09-01T06:23:28;7.50;;;4.90;;
68608;SDS011;55581;46.718;7.690;2022-09-01T06:25:54;9.75;;;5.57;;
68608;SDS011;55581;46.718;7.690;2022-09-01T06:28:22;8.73;;;4.88;;
68608;SDS011;55581;46.718;7.690;2022-09-01T06:30:48;7.97;;;4.20;;
68608;SDS011;55581;46.718;7.690;2022-09-01T06:33:17;7.03;;;4.90;;
68608;SDS011;55581;46.718;7.690;2022-09-01T06:35:43;6.93;;;4.30;;
68608;SDS011;55581;46.718;7.690;2022-09-01T06:38:11;7.38;;;4.25;;
68608;SDS011;55581;46.718;7.690;2022-09-01T06:40:38;7.50;;;4.50;;
68608;SDS011;55581;46.718;7.690;2022-09-01T06:43:06;8.02;;;4.50;;
68608;SDS011;55581;46.718;7.690;2022-09-01T06:45:33;6.78;;;4.50;;
68608;SDS011;55581;46.718;7.690;2022-09-01T06:48:04;7.50;;;4.70;;
68608;SDS011;55581;46.718;7.690;2022-09-01T06:50:30;11.37;;;5.27;;
68608;SDS011;55581;46.718;7.690;2022-09-01T06:52:58;7.15;;;4.80;;
68608;SDS011;55581;46.718;7.690;2022-09-01T06:55:32;7.63;;;5.00;;
68608;SDS011;55581;46.718;7.690;2022-09-01T06:58:01;9.75;;;5.95;;
68608;SDS011;55581;46.718;7.690;2022-09-01T07:00:29;8.40;;;4.90;;
68608;SDS011;55581;46.718;7.690;2022-09-01T07:02:55;7.43;;;4.90;;
68608;SDS011;55581;46.718;7.690;2022-09-01T07:05:21;6.75;;;4.50;;
68608;SDS011;55581;46.718;7.690;2022-09-01T07:07:48;6.78;;;4.82;;
68608;SDS011;55581;46.718;7.690;2022-09-01T07:10:23;8.17;;;5.10;;
68608;SDS011;55581;46.718;7.690;2022-09-01T07:12:54;6.85;;;4.70;;
68608;SDS011;55581;46.718;7.690;2022-09-01T07:15:22;8.27;;;4.95;;
68608;SDS011;55581;46.718;7.690;2022-09-01T07:17:49;7.53;;;5.22;;
68608;SDS011;55581;46.718;7.690;2022-09-01T07:20:17;7.50;;;4.43;;
68608;SDS011;55581;46.718;7.690;2022-09-01T07:22:47;7.53;;;4.45;;
68608;SDS011;55581;46.718;7.690;2022-09-01T07:25:13;6.72;;;4.60;;
68608;SDS011;55581;46.718;7.690;2022-09-01T07:27:39;7.57;;;4.60;;
68608;SDS011;55581;46.718;7.690;2022-09-01T07:30:15;8.07;;;4.90;;
68608;SDS011;55581;46.718;7.690;2022-09-01T07:32:44;11.15;;;4.95;;
68608;SDS011;55581;46.718;7.690;2022-09-01T07:35:11;7.72;;;4.50;;
68608;SDS011;55581;46.718;7.690;2022-09-01T07:37:38;8.00;;;4.40;;
68608;SDS011;55581;46.718;7.690;2022-09-01T07:40:04;7.30;;;4.70;;
68608;SDS011;55581;46.718;7.690;2022-09-01T07:42:32;7.25;;;4.53;;
68608;SDS011;55581;46.718;7.690;2022-09-01T07:44:57;8.07;;;4.27;;
68608;SDS011;55581;46.718;7.690;2022-09-01T07:47:24;9.15;;;4.93;;
68608;SDS011;55581;46.718;7.690;2022-09-01T07:49:49;8.18;;;5.55;;
68608;SDS011;55581;46.718;7.690;2022-09-01T07:52:17;10.00;;;5.80;;
68608;SDS011;55581;46.718;7.690;2022-09-01T07:54:44;8.33;;;4.77;;
68608;SDS011;55581;46.718;7.690;2022-09-01T07:57:10;9.60;;;6.22;;
68608;SDS011;55581;46.718;7.690;2022-09-01T07:59:35;7.73;;;4.93;;
68608;SDS011;55581;46.718;7.690;2022-09-01T08:02:01;8.70;;;5.50;;
68608;SDS011;55581;46.718;7.690;2022-09-01T08:04:29;7.57;;;5.07;;
68608;SDS011;55581;46.718;7.690;2022-09-01T08:06:55;8.05;;;5.55;;
68608;SDS011;55581;46.718;7.690;2022-09-01T08:09:21;9.55;;;5.50;;
68608;SDS011;55581;46.718;7.690;2022-09-01T08:11:47;8.17;;;5.10;;
68608;SDS011;55581;46.718;7.690;2022-09-01T08:14:12;8.90;;;4.97;;
68608;SDS011;55581;46.718;7.690;2022-09-01T08:16:37;7.93;;;5.53;;
68608;SDS011;55581;46.718;7.690;2022-09-01T08:19:05;7.80;;;5.43;;
68608;SDS011;55581;46.718;7.690;2022-09-01T08:21:31;11.88;;;5.70;;
68608;SDS011;55581;46.718;7.690;2022-09-01T08:23:56;11.30;;;5.80;;
68608;SDS011;55581;46.718;7.690;2022-09-01T08:26:23;9.80;;;5.72;;
68608;SDS011;55581;46.718;7.690;2022-09-01T08:28:50;8.33;;;5.60;;
68608;SDS011;55581;46.718;7.690;2022-09-01T08:31:17;8.75;;;5.78;;
68608;SDS011;55581;46.718;7.690;2022-09-01T08:33:44;8.05;;;5.80;;
68608;SDS011;55581;46.718;7.690;2022-09-01T08:36:12;8.63;;;5.55;;
68608;SDS011;55581;46.718;7.690;2022-09-01T08:38:38;10.85;;;5.88;;
68608;SDS011;55581;46.718;7.690;2022-09-01T08:41:05;8.77;;;5.57;;
68608;SDS011;55581;46.718;7.690;2022-09-01T08:46:13;8.48;;;4.68;;
68608;SDS011;55581;46.718;7.690;2022-09-01T08:48:51;8.32;;;5.63;;
68608;SDS011;55581;46.718;7.690;2022-09-01T08:51:21;8.88;;;5.88;;
68608;SDS011;55581;46.718;7.690;2022-09-01T08:56:42;9.98;;;6.57;;
68608;SDS011;55581;46.718;7.690;2022-09-01T08:59:09;9.68;;;6.28;;
68608;SDS011;55581;46.718;7.690;2022-09-01T09:02:20;9.23;;;5.80;;
68608;SDS011;55581;46.718;7.690;2022-09-01T09:10:18;10.23;;;5.93;;
68608;SDS011;55581;46.718;7.690;2022-09-01T09:18:28;11.07;;;6.03;;
68608;SDS011;55581;46.718;7.690;2022-09-01T09:21:01;7.73;;;5.23;;
68608;SDS011;55581;46.718;7.690;2022-09-01T09:23:37;8.43;;;5.07;;
68608;SDS011;55581;46.718;7.690;2022-09-01T09:26:06;8.88;;;5.85;;
68608;SDS011;55581;46.718;7.690;2022-09-01T09:28:34;10.07;;;5.63;;
68608;SDS011;55581;46.718;7.690;2022-09-01T09:33:50;7.82;;;5.38;;
68608;SDS011;55581;46.718;7.690;2022-09-01T09:36:18;7.70;;;5.70;;
68608;SDS011;55581;46.718;7.690;2022-09-01T09:41:40;8.35;;;5.20;;
68608;SDS011;55581;46.718;7.690;2022-09-01T09:44:18;8.13;;;4.77;;
68608;SDS011;55581;46.718;7.690;2022-09-01T09:46:54;7.82;;;5.38;;
68608;SDS011;55581;46.718;7.690;2022-09-01T09:51:53;10.13;;;5.05;;
68608;SDS011;55581;46.718;7.690;2022-09-01T09:54:34;9.85;;;5.25;;
68608;SDS011;55581;46.718;7.690;2022-09-01T09:57:09;6.73;;;4.80;;
68608;SDS011;55581;46.718;7.690;2022-09-01T10:02:31;8.10;;;4.57;;
68608;SDS011;55581;46.718;7.690;2022-09-01T10:10:54;8.60;;;5.03;;
68608;SDS011;55581;46.718;7.690;2022-09-01T10:13:21;8.88;;;5.35;;
68608;SDS011;55581;46.718;7.690;2022-09-01T10:15:49;8.70;;;5.55;;
68608;SDS011;55581;46.718;7.690;2022-09-01T10:18:18;13.23;;;9.27;;
68608;SDS011;55581;46.718;7.690;2022-09-01T10:20:48;8.25;;;5.75;;
68608;SDS011;55581;46.718;7.690;2022-09-01T10:23:20;10.82;;;7.00;;
68608;SDS011;55581;46.718;7.690;2022-09-01T10:25:46;11.45;;;8.27;;
68608;SDS011;55581;46.718;7.690;2022-09-01T10:28:15;7.07;;;4.80;;
68608;SDS011;55581;46.718;7.690;2022-09-01T10:30:48;5.90;;;4.10;;
68608;SDS011;55581;46.718;7.690;2022-09-01T10:33:17;7.95;;;4.90;;
68608;SDS011;55581;46.718;7.690;2022-09-01T10:35:45;8.50;;;5.10;;
68608;SDS011;55581;46.718;7.690;2022-09-01T10:38:35;7.60;;;5.47;;
68608;SDS011;55581;46.718;7.690;2022-09-01T10:41:00;6.27;;;4.63;;
68608;SDS011;55581;46.718;7.690;2022-09-01T10:43:53;7.28;;;4.57;;
68608;SDS011;55581;46.718;7.690;2022-09-01T10:48:51;8.48;;;4.80;;
68608;SDS011;55581;46.718;7.690;2022-09-01T10:53:56;7.83;;;4.63;;
68608;SDS011;55581;46.718;7.690;2022-09-01T10:59:23;7.17;;;4.87;;
68608;SDS011;55581;46.718;7.690;2022-09-01T11:06:53;7.10;;;5.20;;
68608;SDS011;55581;46.718;7.690;2022-09-01T11:09:24;7.25;;;5.10;;
68608;SDS011;55581;46.718;7.690;2022-09-01T11:15:32;6.05;;;4.32;;
68608;SDS011;55581;46.718;7.690;2022-09-01T11:20:27;7.10;;;4.70;;
68608;SDS011;55581;46.718;7.690;2022-09-01T11:38:53;5.55;;;3.88;;
68608;SDS011;55581;46.718;7.690;2022-09-01T11:41:34;7.17;;;4.43;;
68608;SDS011;55581;46.718;7.690;2022-09-01T11:44:29;7.47;;;4.93;;
68608;SDS011;55581;46.718;7.690;2022-09-01T11:47:02;8.35;;;5.47;;
68608;SDS011;55581;46.718;7.690;2022-09-01T11:49:38;8.43;;;4.32;;
68608;SDS011;55581;46.718;7.690;2022-09-01T11:52:13;8.38;;;4.78;;
68608;SDS011;55581;46.718;7.690;2022-09-01T11:54:40;6.57;;;5.00;;
68608;SDS011;55581;46.718;7.690;2022-09-01T11:57:43;8.88;;;5.28;;
68608;SDS011;55581;46.718;7.690;2022-09-01T12:00:06;7.65;;;5.55;;
68608;SDS011;55581;46.718;7.690;2022-09-01T12:02:34;7.18;;;4.93;;
68608;SDS011;55581;46.718;7.690;2022-09-01T12:07:48;7.40;;;5.30;;
68608;SDS011;55581;46.718;7.690;2022-09-01T12:10:33;7.70;;;5.00;;
68608;SDS011;55581;46.718;7.690;2022-09-01T12:13:07;7.88;;;4.90;;
68608;SDS011;55581;46.718;7.690;2022-09-01T12:15:36;8.73;;;5.37;;
68608;SDS011;55581;46.718;7.690;2022-09-01T12:20:37;8.45;;;5.85;;
68608;SDS011;55581;46.718;7.690;2022-09-01T12:23:11;8.18;;;5.82;;
68608;SDS011;55581;46.718;7.690;2022-09-01T12:26:05;10.00;;;5.50;;
68608;SDS011;55581;46.718;7.690;2022-09-01T12:28:36;8.90;;;6.17;;
68608;SDS011;55581;46.718;7.690;2022-09-01T12:31:05;10.20;;;6.43;;
68608;SDS011;55581;46.718;7.690;2022-09-01T12:33:36;8.75;;;5.78;;
68608;SDS011;55581;46.718;7.690;2022-09-01T12:38:46;10.00;;;5.93;;
68608;SDS011;55581;46.718;7.690;2022-09-01T12:47:09;7.65;;;5.30;;
68608;SDS011;55581;46.718;7.690;2022-09-01T12:49:44;7.50;;;5.35;;
68608;SDS011;55581;46.718;7.690;2022-09-01T12:57:32;7.53;;;5.22;;
68608;SDS011;55581;46.718;7.690;2022-09-01T13:02:33;8.65;;;5.18;;
68608;SDS011;55581;46.718;7.690;2022-09-01T13:07:46;11.82;;;5.72;;
68608;SDS011;55581;46.718;7.690;2022-09-01T13:10:12;8.17;;;5.07;;
68608;SDS011;55581;46.718;7.690;2022-09-01T13:12:39;6.93;;;5.25;;
68608;SDS011;55581;46.718;7.690;2022-09-01T13:15:07;7.50;;;5.18;;
68608;SDS011;55581;46.718;7.690;2022-09-01T13:17:33;7.85;;;4.78;;
68608;SDS011;55581;46.718;7.690;2022-09-01T13:19:58;7.70;;;5.43;;
68608;SDS011;55581;46.718;7.690;2022-09-01T13:22:24;10.27;;;5.00;;
68608;SDS011;55581;46.718;7.690;2022-09-01T13:24:49;7.15;;;4.80;;
68608;SDS011;55581;46.718;7.690;2022-09-01T13:27:14;7.43;;;4.80;;
68608;SDS011;55581;46.718;7.690;2022-09-01T13:29:40;7.33;;;4.77;;
68608;SDS011;55581;46.718;7.690;2022-09-01T13:32:05;6.57;;;4.70;;
68608;SDS011;55581;46.718;7.690;2022-09-01T13:34:32;8.43;;;5.15;;
68608;SDS011;55581;46.718;7.690;2022-09-01T13:36:58;7.38;;;4.93;;
68608;SDS011;55581;46.718;7.690;2022-09-01T13:39:24;7.60;;;4.70;;
68608;SDS011;55581;46.718;7.690;2022-09-01T13:41:49;6.67;;;5.10;;
68608;SDS011;55581;46.718;7.690;2022-09-01T13:44:15;7.65;;;4.30;;
68608;SDS011;55581;46.718;7.690;2022-09-01T13:46:42;7.47;;;4.43;;
68608;SDS011;55581;46.718;7.690;2022-09-01T13:49:08;6.85;;;4.75;;
68608;SDS011;55581;46.718;7.690;2022-09-01T13:51:34;6.43;;;4.27;;
68608;SDS011;55581;46.718;7.690;2022-09-01T13:54:01;6.40;;;4.30;;
68608;SDS011;55581;46.718;7.690;2022-09-01T13:56:26;6.03;;;4.40;;
68608;SDS011;55581;46.718;7.690;2022-09-01T13:58:52;5.93;;;4.23;;
68608;SDS011;55581;46.718;7.690;2022-09-01T14:01:17;7.57;;;5.03;;
68608;SDS011;55581;46.718;7.690;2022-09-01T14:03:43;8.15;;;4.85;;
68608;SDS011;55581;46.718;7.690;2022-09-01T14:06:08;7.60;;;4.70;;
68608;SDS011;55581;46.718;7.690;2022-09-01T14:08:34;8.67;;;5.13;;
68608;SDS011;55581;46.718;7.690;2022-09-01T14:11:02;9.05;;;4.95;;
68608;SDS011;55581;46.718;7.690;2022-09-01T14:13:27;8.10;;;4.38;;
68608;SDS011;55581;46.718;7.690;2022-09-01T14:15:55;7.63;;;4.47;;
68608;SDS011;55581;46.718;7.690;2022-09-01T14:18:20;8.27;;;4.95;;
68608;SDS011;55581;46.718;7.690;2022-09-01T14:20:47;6.47;;;4.20;;
68608;SDS011;55581;46.718;7.690;2022-09-01T14:23:15;8.27;;;4.75;;
68608;SDS011;55581;46.718;7.690;2022-09-01T14:25:45;7.20;;;5.00;;
68608;SDS011;55581;46.718;7.690;2022-09-01T14:28:13;6.55;;;4.50;;
68608;SDS011;55581;46.718;7.690;2022-09-01T14:30:39;7.47;;;4.57;;
68608;SDS011;55581;46.718;7.690;2022-09-01T14:33:07;6.80;;;4.27;;
68608;SDS011;55581;46.718;7.690;2022-09-01T14:35:35;6.88;;;4.13;;
68608;SDS011;55581;46.718;7.690;2022-09-01T14:38:05;8.07;;;4.22;;
68608;SDS011;55581;46.718;7.690;2022-09-01T14:40:33;7.38;;;4.38;;
68608;SDS011;55581;46.718;7.690;2022-09-01T14:43:03;7.35;;;3.90;;
68608;SDS011;55581;46.718;7.690;2022-09-01T14:45:30;6.03;;;4.00;;
68608;SDS011;55581;46.718;7.690;2022-09-01T14:47:58;5.55;;;3.42;;
68608;SDS011;55581;46.718;7.690;2022-09-01T14:50:25;6.55;;;3.95;;
68608;SDS011;55581;46.718;7.690;2022-09-01T14:52:53;6.00;;;3.93;;
68608;SDS011;55581;46.718;7.690;2022-09-01T14:55:21;6.57;;;4.00;;
68608;SDS011;55581;46.718;7.690;2022-09-01T14:57:48;6.43;;;4.25;;
68608;SDS011;55581;46.718;7.690;2022-09-01T15:00:14;7.57;;;4.50;;
68608;SDS011;55581;46.718;7.690;2022-09-01T15:02:41;6.45;;;4.50;;
68608;SDS011;55581;46.718;7.690;2022-09-01T15:05:07;6.50;;;4.00;;
68608;SDS011;55581;46.718;7.690;2022-09-01T15:07:34;7.50;;;4.07;;
68608;SDS011;55581;46.718;7.690;2022-09-01T15:10:00;6.25;;;3.67;;
68608;SDS011;55581;46.718;7.690;2022-09-01T15:12:25;7.05;;;4.30;;
68608;SDS011;55581;46.718;7.690;2022-09-01T15:14:55;7.10;;;4.25;;
68608;SDS011;55581;46.718;7.690;2022-09-01T15:17:21;6.90;;;4.20;;
68608;SDS011;55581;46.718;7.690;2022-09-01T15:19:47;8.63;;;4.10;;
68608;SDS011;55581;46.718;7.690;2022-09-01T15:22:12;5.80;;;3.90;;
68608;SDS011;55581;46.718;7.690;2022-09-01T15:24:38;6.25;;;4.13;;
68608;SDS011;55581;46.718;7.690;2022-09-01T15:27:04;7.30;;;4.57;;
68608;SDS011;55581;46.718;7.690;2022-09-01T15:29:30;5.97;;;4.40;;
68608;SDS011;55581;46.718;7.690;2022-09-01T15:31:58;6.55;;;4.28;;
68608;SDS011;55581;46.718;7.690;2022-09-01T15:34:25;5.40;;;3.72;;
68608;SDS011;55581;46.718;7.690;2022-09-01T15:36:54;7.80;;;4.03;;
68608;SDS011;55581;46.718;7.690;2022-09-01T15:39:20;5.73;;;3.83;;
68608;SDS011;55581;46.718;7.690;2022-09-01T15:41:45;5.60;;;4.13;;
68608;SDS011;55581;46.718;7.690;2022-09-01T15:44:11;6.80;;;4.30;;
68608;SDS011;55581;46.718;7.690;2022-09-01T15:46:36;6.37;;;3.97;;
68608;SDS011;55581;46.718;7.690;2022-09-01T15:49:07;5.75;;;4.15;;
68608;SDS011;55581;46.718;7.690;2022-09-01T15:51:35;6.22;;;3.75;;
68608;SDS011;55581;46.718;7.690;2022-09-01T15:54:06;5.60;;;3.90;;
68608;SDS011;55581;46.718;7.690;2022-09-01T15:56:34;5.23;;;3.70;;
68608;SDS011;55581;46.718;7.690;2022-09-01T15:58:59;6.32;;;4.10;;
68608;SDS011;55581;46.718;7.690;2022-09-01T16:01:26;5.38;;;3.63;;
68608;SDS011;55581;46.718;7.690;2022-09-01T16:03:52;6.35;;;4.18;;
68608;SDS011;55581;46.718;7.690;2022-09-01T16:06:19;6.03;;;3.77;;
68608;SDS011;55581;46.718;7.690;2022-09-01T16:08:47;7.20;;;4.00;;
68608;SDS011;55581;46.718;7.690;2022-09-01T16:11:12;8.43;;;4.32;;
68608;SDS011;55581;46.718;7.690;2022-09-01T16:13:39;5.50;;;4.07;;
68608;SDS011;55581;46.718;7.690;2022-09-01T16:18:57;5.57;;;3.25;;
68608;SDS011;55581;46.718;7.690;2022-09-01T16:24:14;5.03;;;3.10;;
68608;SDS011;55581;46.718;7.690;2022-09-01T16:26:40;4.68;;;2.92;;
68608;SDS011;55581;46.718;7.690;2022-09-01T16:29:11;6.18;;;3.10;;
68608;SDS011;55581;46.718;7.690;2022-09-01T16:31:47;5.10;;;2.78;;
68608;SDS011;55581;46.718;7.690;2022-09-01T16:34:17;5.57;;;3.47;;
68608;SDS011;55581;46.718;7.690;2022-09-01T16:39:45;4.88;;;3.38;;
68608;SDS011;55581;46.718;7.690;2022-09-01T16:50:18;10.20;;;6.95;;
68608;SDS011;55581;46.718;7.690;2022-09-01T16:52:53;7.90;;;5.63;;
68608;SDS011;55581;46.718;7.690;2022-09-01T16:55:34;6.53;;;3.30;;
68608;SDS011;55581;46.718;7.690;2022-09-01T17:03:17;5.47;;;3.97;;
68608;SDS011;55581;46.718;7.690;2022-09-01T17:05:58;5.78;;;3.50;;
68608;SDS011;55581;46.718;7.690;2022-09-01T17:08:32;5.50;;;3.23;;